sensor_id;sensor_type;location;lat;lon;timestamp;P1;durP1;ratioP1;P2;durP2;ratioP2
78368;SDS011;71113;43.092;-89.268;2023-10-31T00:01:49;13.80;;;7.55;;
78368;SDS011;71113;43.092;-89.268;2023-10-31T00:04:15;14.82;;;8.23;;
78368;SDS011;71113;43.092;-89.268;2023-10-31T00:06:41;15.38;;;7.93;;
78368;SDS011;71113;43.092;-89.268;2023-10-31T00:09:07;13.07;;;6.82;;
78368;SDS011;71113;43.092;-89.268;2023-10-31T00:11:53;13.48;;;7.28;;
78368;SDS011;71113;43.092;-89.268;2023-10-31T00:14:19;13.85;;;7.47;;
78368;SDS011;71113;43.092;-89.268;2023-10-31T00:16:45;12.23;;;6.63;;
78368;SDS011;71113;43.092;-89.268;2023-10-31T00:19:13;14.00;;;6.82;;
78368;SDS011;71113;43.092;-89.268;2023-10-31T00:21:40;11.50;;;6.35;;
78368;SDS011;71113;43.092;-89.268;2023-10-31T00:24:06;13.15;;;6.13;;
78368;SDS011;71113;43.092;-89.268;2023-10-31T00:26:32;12.52;;;6.80;;
78368;SDS011;71113;43.092;-89.268;2023-10-31T00:28:58;13.32;;;6.70;;
78368;SDS011;71113;43.092;-89.268;2023-10-31T00:31:24;10.70;;;5.55;;
78368;SDS011;71113;43.092;-89.268;2023-10-31T00:33:50;12.20;;;6.40;;
78368;SDS011;71113;43.092;-89.268;2023-10-31T00:36:16;11.20;;;6.68;;
78368;SDS011;71113;43.092;-89.268;2023-10-31T00:38:42;9.95;;;5.43;;
78368;SDS011;71113;43.092;-89.268;2023-10-31T00:41:08;11.63;;;5.53;;
78368;SDS011;71113;43.092;-89.268;2023-10-31T00:43:34;10.65;;;5.88;;
78368;SDS011;71113;43.092;-89.268;2023-10-31T00:46:03;8.93;;;4.65;;
78368;SDS011;71113;43.092;-89.268;2023-10-31T00:48:29;10.50;;;5.35;;
78368;SDS011;71113;43.092;-89.268;2023-10-31T00:51:02;8.93;;;4.82;;
78368;SDS011;71113;43.092;-89.268;2023-10-31T00:53:29;8.10;;;5.07;;
78368;SDS011;71113;43.092;-89.268;2023-10-31T00:55:55;6.80;;;3.63;;
78368;SDS011;71113;43.092;-89.268;2023-10-31T00:58:21;8.55;;;4.50;;
78368;SDS011;71113;43.092;-89.268;2023-10-31T01:00:47;7.20;;;3.80;;
78368;SDS011;71113;43.092;-89.268;2023-10-31T01:03:12;7.82;;;4.20;;
78368;SDS011;71113;43.092;-89.268;2023-10-31T01:05:38;7.75;;;4.40;;
78368;SDS011;71113;43.092;-89.268;2023-10-31T01:08:04;6.57;;;3.55;;
78368;SDS011;71113;43.092;-89.268;2023-10-31T01:10:30;7.28;;;3.83;;
78368;SDS011;71113;43.092;-89.268;2023-10-31T01:12:56;6.18;;;3.50;;
78368;SDS011;71113;43.092;-89.268;2023-10-31T01:15:23;6.38;;;3.33;;
78368;SDS011;71113;43.092;-89.268;2023-10-31T01:17:49;6.25;;;3.50;;
78368;SDS011;71113;43.092;-89.268;2023-10-31T01:20:15;5.60;;;2.90;;
78368;SDS011;71113;43.092;-89.268;2023-10-31T01:22:41;7.13;;;3.35;;
78368;SDS011;71113;43.092;-89.268;2023-10-31T01:25:07;5.95;;;3.42;;
78368;SDS011;71113;43.092;-89.268;2023-10-31T01:27:33;5.68;;;3.08;;
78368;SDS011;71113;43.092;-89.268;2023-10-31T01:29:59;5.65;;;3.35;;
78368;SDS011;71113;43.092;-89.268;2023-10-31T01:32:25;5.95;;;3.42;;
78368;SDS011;71113;43.092;-89.268;2023-10-31T01:34:51;6.47;;;3.38;;
78368;SDS011;71113;43.092;-89.268;2023-10-31T01:37:17;6.60;;;3.50;;
78368;SDS011;71113;43.092;-89.268;2023-10-31T01:39:45;4.75;;;2.80;;
78368;SDS011;71113;43.092;-89.268;2023-10-31T01:42:14;4.93;;;2.78;;
78368;SDS011;71113;43.092;-89.268;2023-10-31T01:44:40;3.65;;;2.40;;
78368;SDS011;71113;43.092;-89.268;2023-10-31T01:47:06;5.78;;;2.85;;
78368;SDS011;71113;43.092;-89.268;2023-10-31T01:49:32;5.88;;;2.90;;
78368;SDS011;71113;43.092;-89.268;2023-10-31T01:51:59;4.82;;;2.40;;
78368;SDS011;71113;43.092;-89.268;2023-10-31T01:54:27;4.68;;;2.60;;
78368;SDS011;71113;43.092;-89.268;2023-10-31T01:56:54;4.72;;;2.42;;
78368;SDS011;71113;43.092;-89.268;2023-10-31T01:59:24;5.07;;;2.42;;
78368;SDS011;71113;43.092;-89.268;2023-10-31T02:01:50;4.95;;;2.33;;
78368;SDS011;71113;43.092;-89.268;2023-10-31T02:04:16;5.03;;;2.58;;
78368;SDS011;71113;43.092;-89.268;2023-10-31T02:06:42;3.95;;;2.00;;
78368;SDS011;71113;43.092;-89.268;2023-10-31T02:09:08;3.90;;;2.28;;
78368;SDS011;71113;43.092;-89.268;2023-10-31T02:11:34;4.32;;;2.35;;
78368;SDS011;71113;43.092;-89.268;2023-10-31T02:14:00;4.57;;;2.35;;
78368;SDS011;71113;43.092;-89.268;2023-10-31T02:16:27;4.88;;;2.63;;
78368;SDS011;71113;43.092;-89.268;2023-10-31T02:18:53;4.05;;;2.03;;
78368;SDS011;71113;43.092;-89.268;2023-10-31T02:21:19;3.58;;;2.03;;
78368;SDS011;71113;43.092;-89.268;2023-10-31T02:23:58;3.50;;;2.13;;
78368;SDS011;71113;43.092;-89.268;2023-10-31T02:26:28;4.50;;;2.03;;
78368;SDS011;71113;43.092;-89.268;2023-10-31T02:28:55;4.40;;;2.20;;
78368;SDS011;71113;43.092;-89.268;2023-10-31T02:31:21;3.97;;;2.30;;
78368;SDS011;71113;43.092;-89.268;2023-10-31T02:33:47;4.82;;;2.40;;
78368;SDS011;71113;43.092;-89.268;2023-10-31T02:36:13;4.97;;;2.47;;
78368;SDS011;71113;43.092;-89.268;2023-10-31T02:38:39;4.28;;;2.40;;
78368;SDS011;71113;43.092;-89.268;2023-10-31T02:41:05;4.57;;;2.53;;
78368;SDS011;71113;43.092;-89.268;2023-10-31T02:43:31;4.55;;;2.45;;
78368;SDS011;71113;43.092;-89.268;2023-10-31T02:45:57;5.38;;;2.80;;
78368;SDS011;71113;43.092;-89.268;2023-10-31T02:48:23;4.97;;;2.40;;
78368;SDS011;71113;43.092;-89.268;2023-10-31T02:50:50;4.97;;;2.70;;
78368;SDS011;71113;43.092;-89.268;2023-10-31T02:53:19;5.20;;;2.65;;
78368;SDS011;71113;43.092;-89.268;2023-10-31T02:55:45;5.22;;;2.58;;
78368;SDS011;71113;43.092;-89.268;2023-10-31T02:58:11;5.13;;;2.72;;
78368;SDS011;71113;43.092;-89.268;2023-10-31T03:00:37;4.53;;;2.65;;
78368;SDS011;71113;43.092;-89.268;2023-10-31T03:03:03;5.15;;;2.47;;
78368;SDS011;71113;43.092;-89.268;2023-10-31T03:05:30;4.20;;;2.38;;
78368;SDS011;71113;43.092;-89.268;2023-10-31T03:07:56;4.63;;;2.30;;
78368;SDS011;71113;43.092;-89.268;2023-10-31T03:10:22;4.80;;;2.72;;
78368;SDS011;71113;43.092;-89.268;2023-10-31T03:12:48;4.53;;;2.80;;
78368;SDS011;71113;43.092;-89.268;2023-10-31T03:15:14;5.20;;;2.83;;
78368;SDS011;71113;43.092;-89.268;2023-10-31T03:17:40;4.05;;;2.47;;
78368;SDS011;71113;43.092;-89.268;2023-10-31T03:20:24;4.30;;;2.30;;
78368;SDS011;71113;43.092;-89.268;2023-10-31T03:22:50;4.10;;;2.40;;
78368;SDS011;71113;43.092;-89.268;2023-10-31T03:25:16;4.50;;;2.45;;
78368;SDS011;71113;43.092;-89.268;2023-10-31T03:27:42;4.00;;;2.50;;
78368;SDS011;71113;43.092;-89.268;2023-10-31T03:30:07;4.57;;;2.42;;
78368;SDS011;71113;43.092;-89.268;2023-10-31T03:32:34;3.85;;;2.25;;
78368;SDS011;71113;43.092;-89.268;2023-10-31T03:35:00;4.30;;;2.50;;
78368;SDS011;71113;43.092;-89.268;2023-10-31T03:37:26;4.68;;;2.58;;
78368;SDS011;71113;43.092;-89.268;2023-10-31T03:39:52;4.45;;;2.42;;
78368;SDS011;71113;43.092;-89.268;2023-10-31T03:42:18;4.28;;;2.40;;
78368;SDS011;71113;43.092;-89.268;2023-10-31T03:44:44;4.13;;;2.50;;
78368;SDS011;71113;43.092;-89.268;2023-10-31T03:47:10;4.30;;;2.25;;
78368;SDS011;71113;43.092;-89.268;2023-10-31T03:49:39;4.43;;;2.40;;
78368;SDS011;71113;43.092;-89.268;2023-10-31T03:52:06;3.78;;;2.38;;
78368;SDS011;71113;43.092;-89.268;2023-10-31T03:54:32;4.22;;;2.53;;
78368;SDS011;71113;43.092;-89.268;2023-10-31T03:56:58;3.63;;;2.10;;
78368;SDS011;71113;43.092;-89.268;2023-10-31T03:59:24;4.20;;;2.28;;
78368;SDS011;71113;43.092;-89.268;2023-10-31T04:01:49;3.70;;;2.03;;
78368;SDS011;71113;43.092;-89.268;2023-10-31T04:04:15;3.85;;;2.20;;
78368;SDS011;71113;43.092;-89.268;2023-10-31T04:06:41;4.47;;;2.15;;
78368;SDS011;71113;43.092;-89.268;2023-10-31T04:09:08;4.35;;;2.13;;
78368;SDS011;71113;43.092;-89.268;2023-10-31T04:11:35;5.55;;;2.40;;
78368;SDS011;71113;43.092;-89.268;2023-10-31T04:14:01;3.65;;;1.90;;
78368;SDS011;71113;43.092;-89.268;2023-10-31T04:16:27;3.25;;;1.92;;
78368;SDS011;71113;43.092;-89.268;2023-10-31T04:18:53;4.30;;;1.95;;
78368;SDS011;71113;43.092;-89.268;2023-10-31T04:21:18;3.53;;;1.92;;
78368;SDS011;71113;43.092;-89.268;2023-10-31T04:23:44;3.40;;;1.77;;
78368;SDS011;71113;43.092;-89.268;2023-10-31T04:26:10;3.75;;;2.17;;
78368;SDS011;71113;43.092;-89.268;2023-10-31T04:28:36;3.40;;;2.17;;
78368;SDS011;71113;43.092;-89.268;2023-10-31T04:31:02;3.28;;;1.90;;
78368;SDS011;71113;43.092;-89.268;2023-10-31T04:33:29;2.75;;;1.63;;
78368;SDS011;71113;43.092;-89.268;2023-10-31T04:35:55;3.15;;;1.80;;
78368;SDS011;71113;43.092;-89.268;2023-10-31T04:38:21;4.32;;;1.98;;
78368;SDS011;71113;43.092;-89.268;2023-10-31T04:40:47;3.33;;;1.98;;
78368;SDS011;71113;43.092;-89.268;2023-10-31T04:43:13;3.40;;;2.03;;
78368;SDS011;71113;43.092;-89.268;2023-10-31T04:45:39;2.45;;;1.55;;
78368;SDS011;71113;43.092;-89.268;2023-10-31T04:48:05;3.63;;;2.10;;
78368;SDS011;71113;43.092;-89.268;2023-10-31T04:50:31;3.10;;;1.73;;
78368;SDS011;71113;43.092;-89.268;2023-10-31T04:52:57;2.80;;;1.70;;
78368;SDS011;71113;43.092;-89.268;2023-10-31T04:55:22;3.17;;;1.90;;
78368;SDS011;71113;43.092;-89.268;2023-10-31T04:57:48;3.50;;;1.70;;
78368;SDS011;71113;43.092;-89.268;2023-10-31T05:00:14;3.13;;;2.00;;
78368;SDS011;71113;43.092;-89.268;2023-10-31T05:02:41;2.70;;;1.65;;
78368;SDS011;71113;43.092;-89.268;2023-10-31T05:05:07;3.78;;;1.80;;
78368;SDS011;71113;43.092;-89.268;2023-10-31T05:07:33;3.67;;;1.75;;
78368;SDS011;71113;43.092;-89.268;2023-10-31T05:09:59;2.75;;;1.60;;
78368;SDS011;71113;43.092;-89.268;2023-10-31T05:12:25;3.65;;;1.88;;
78368;SDS011;71113;43.092;-89.268;2023-10-31T05:14:51;2.70;;;1.58;;
78368;SDS011;71113;43.092;-89.268;2023-10-31T05:17:16;2.33;;;1.63;;
78368;SDS011;71113;43.092;-89.268;2023-10-31T05:19:42;2.70;;;1.45;;
78368;SDS011;71113;43.092;-89.268;2023-10-31T05:22:08;3.55;;;1.80;;
78368;SDS011;71113;43.092;-89.268;2023-10-31T05:24:34;2.85;;;1.80;;
78368;SDS011;71113;43.092;-89.268;2023-10-31T05:27:01;3.08;;;1.80;;
78368;SDS011;71113;43.092;-89.268;2023-10-31T05:29:28;3.42;;;1.83;;
78368;SDS011;71113;43.092;-89.268;2023-10-31T05:31:55;2.67;;;1.55;;
78368;SDS011;71113;43.092;-89.268;2023-10-31T05:34:21;2.90;;;1.50;;
78368;SDS011;71113;43.092;-89.268;2023-10-31T05:36:47;2.67;;;1.63;;
78368;SDS011;71113;43.092;-89.268;2023-10-31T05:39:30;3.03;;;1.60;;
78368;SDS011;71113;43.092;-89.268;2023-10-31T05:41:56;3.25;;;1.95;;
78368;SDS011;71113;43.092;-89.268;2023-10-31T05:44:22;3.53;;;1.80;;
78368;SDS011;71113;43.092;-89.268;2023-10-31T05:46:47;3.00;;;1.90;;
78368;SDS011;71113;43.092;-89.268;2023-10-31T05:49:14;2.90;;;1.90;;
78368;SDS011;71113;43.092;-89.268;2023-10-31T05:51:41;2.65;;;1.60;;
78368;SDS011;71113;43.092;-89.268;2023-10-31T05:54:07;2.50;;;1.80;;
78368;SDS011;71113;43.092;-89.268;2023-10-31T05:56:33;2.88;;;1.73;;
78368;SDS011;71113;43.092;-89.268;2023-10-31T05:58:59;2.88;;;1.75;;
78368;SDS011;71113;43.092;-89.268;2023-10-31T06:01:25;2.28;;;1.77;;
78368;SDS011;71113;43.092;-89.268;2023-10-31T06:03:51;2.78;;;1.80;;
78368;SDS011;71113;43.092;-89.268;2023-10-31T06:06:17;2.78;;;1.88;;
78368;SDS011;71113;43.092;-89.268;2023-10-31T06:08:43;3.60;;;1.70;;
78368;SDS011;71113;43.092;-89.268;2023-10-31T06:11:09;2.45;;;1.70;;
78368;SDS011;71113;43.092;-89.268;2023-10-31T06:13:37;2.65;;;1.60;;
78368;SDS011;71113;43.092;-89.268;2023-10-31T06:16:03;2.28;;;1.40;;
78368;SDS011;71113;43.092;-89.268;2023-10-31T06:18:30;2.65;;;1.70;;
78368;SDS011;71113;43.092;-89.268;2023-10-31T06:20:56;2.60;;;1.75;;
78368;SDS011;71113;43.092;-89.268;2023-10-31T06:23:22;2.30;;;1.60;;
78368;SDS011;71113;43.092;-89.268;2023-10-31T06:25:48;2.58;;;1.70;;
78368;SDS011;71113;43.092;-89.268;2023-10-31T06:28:14;2.63;;;1.88;;
78368;SDS011;71113;43.092;-89.268;2023-10-31T06:30:40;2.67;;;1.73;;
78368;SDS011;71113;43.092;-89.268;2023-10-31T06:33:06;2.80;;;1.60;;
78368;SDS011;71113;43.092;-89.268;2023-10-31T06:35:35;2.25;;;1.60;;
78368;SDS011;71113;43.092;-89.268;2023-10-31T06:38:01;2.55;;;1.70;;
78368;SDS011;71113;43.092;-89.268;2023-10-31T06:40:27;2.60;;;1.73;;
78368;SDS011;71113;43.092;-89.268;2023-10-31T06:42:53;2.50;;;1.75;;
78368;SDS011;71113;43.092;-89.268;2023-10-31T06:45:19;2.10;;;1.58;;
78368;SDS011;71113;43.092;-89.268;2023-10-31T06:47:45;2.53;;;1.70;;
78368;SDS011;71113;43.092;-89.268;2023-10-31T06:50:11;1.98;;;1.42;;
78368;SDS011;71113;43.092;-89.268;2023-10-31T06:52:37;2.22;;;1.70;;
78368;SDS011;71113;43.092;-89.268;2023-10-31T06:55:03;2.38;;;1.75;;
78368;SDS011;71113;43.092;-89.268;2023-10-31T06:57:29;2.28;;;1.55;;
78368;SDS011;71113;43.092;-89.268;2023-10-31T06:59:55;3.38;;;1.42;;
78368;SDS011;71113;43.092;-89.268;2023-10-31T07:02:21;2.83;;;1.63;;
78368;SDS011;71113;43.092;-89.268;2023-10-31T07:04:47;2.30;;;1.60;;
78368;SDS011;71113;43.092;-89.268;2023-10-31T07:07:13;2.20;;;1.50;;
78368;SDS011;71113;43.092;-89.268;2023-10-31T07:09:39;2.50;;;1.60;;
78368;SDS011;71113;43.092;-89.268;2023-10-31T07:12:05;2.40;;;1.30;;
78368;SDS011;71113;43.092;-89.268;2023-10-31T07:14:31;2.28;;;1.50;;
78368;SDS011;71113;43.092;-89.268;2023-10-31T07:16:57;2.55;;;1.63;;
78368;SDS011;71113;43.092;-89.268;2023-10-31T07:19:23;2.22;;;1.73;;
78368;SDS011;71113;43.092;-89.268;2023-10-31T07:21:49;2.55;;;1.58;;
78368;SDS011;71113;43.092;-89.268;2023-10-31T07:24:15;2.22;;;1.73;;
78368;SDS011;71113;43.092;-89.268;2023-10-31T07:26:41;2.35;;;1.70;;
78368;SDS011;71113;43.092;-89.268;2023-10-31T07:29:07;2.45;;;1.92;;
78368;SDS011;71113;43.092;-89.268;2023-10-31T07:31:33;2.30;;;1.40;;
78368;SDS011;71113;43.092;-89.268;2023-10-31T07:34:03;2.00;;;1.45;;
78368;SDS011;71113;43.092;-89.268;2023-10-31T07:36:33;2.53;;;1.67;;
78368;SDS011;71113;43.092;-89.268;2023-10-31T07:39:00;2.30;;;1.60;;
78368;SDS011;71113;43.092;-89.268;2023-10-31T07:41:44;1.88;;;1.30;;
78368;SDS011;71113;43.092;-89.268;2023-10-31T07:44:10;1.95;;;1.13;;
78368;SDS011;71113;43.092;-89.268;2023-10-31T07:46:36;1.98;;;1.40;;
78368;SDS011;71113;43.092;-89.268;2023-10-31T07:49:02;2.45;;;1.63;;
78368;SDS011;71113;43.092;-89.268;2023-10-31T07:51:28;2.53;;;1.60;;
78368;SDS011;71113;43.092;-89.268;2023-10-31T07:53:54;2.58;;;1.70;;
78368;SDS011;71113;43.092;-89.268;2023-10-31T07:56:20;2.30;;;1.60;;
78368;SDS011;71113;43.092;-89.268;2023-10-31T07:58:51;2.30;;;1.48;;
78368;SDS011;71113;43.092;-89.268;2023-10-31T08:01:17;1.83;;;1.35;;
78368;SDS011;71113;43.092;-89.268;2023-10-31T08:03:45;2.28;;;1.60;;
78368;SDS011;71113;43.092;-89.268;2023-10-31T08:06:12;1.80;;;1.38;;
78368;SDS011;71113;43.092;-89.268;2023-10-31T08:08:38;1.90;;;1.30;;
78368;SDS011;71113;43.092;-89.268;2023-10-31T08:11:07;2.15;;;1.50;;
78368;SDS011;71113;43.092;-89.268;2023-10-31T08:13:33;2.30;;;1.65;;
78368;SDS011;71113;43.092;-89.268;2023-10-31T08:15:59;2.55;;;1.40;;
78368;SDS011;71113;43.092;-89.268;2023-10-31T08:18:25;2.40;;;1.60;;
78368;SDS011;71113;43.092;-89.268;2023-10-31T08:20:51;1.80;;;1.30;;
78368;SDS011;71113;43.092;-89.268;2023-10-31T08:23:17;2.28;;;1.50;;
78368;SDS011;71113;43.092;-89.268;2023-10-31T08:25:43;2.05;;;1.35;;
78368;SDS011;71113;43.092;-89.268;2023-10-31T08:28:09;2.03;;;1.45;;
78368;SDS011;71113;43.092;-89.268;2023-10-31T08:30:35;2.38;;;1.73;;
78368;SDS011;71113;43.092;-89.268;2023-10-31T08:33:01;2.10;;;1.60;;
78368;SDS011;71113;43.092;-89.268;2023-10-31T08:35:27;2.10;;;1.58;;
78368;SDS011;71113;43.092;-89.268;2023-10-31T08:37:53;1.77;;;1.30;;
78368;SDS011;71113;43.092;-89.268;2023-10-31T08:40:19;2.95;;;1.58;;
78368;SDS011;71113;43.092;-89.268;2023-10-31T08:42:45;2.00;;;1.55;;
78368;SDS011;71113;43.092;-89.268;2023-10-31T08:45:11;2.30;;;1.50;;
78368;SDS011;71113;43.092;-89.268;2023-10-31T08:47:37;1.92;;;1.50;;
78368;SDS011;71113;43.092;-89.268;2023-10-31T08:50:03;1.85;;;1.42;;
78368;SDS011;71113;43.092;-89.268;2023-10-31T08:52:29;2.25;;;1.48;;
78368;SDS011;71113;43.092;-89.268;2023-10-31T08:54:55;2.05;;;1.50;;
78368;SDS011;71113;43.092;-89.268;2023-10-31T08:57:22;1.88;;;1.48;;
78368;SDS011;71113;43.092;-89.268;2023-10-31T08:59:47;2.15;;;1.40;;
78368;SDS011;71113;43.092;-89.268;2023-10-31T09:02:14;1.88;;;1.40;;
78368;SDS011;71113;43.092;-89.268;2023-10-31T09:04:40;1.80;;;1.40;;
78368;SDS011;71113;43.092;-89.268;2023-10-31T09:07:06;2.10;;;1.50;;
78368;SDS011;71113;43.092;-89.268;2023-10-31T09:09:32;1.75;;;1.30;;
78368;SDS011;71113;43.092;-89.268;2023-10-31T09:11:57;2.00;;;1.50;;
78368;SDS011;71113;43.092;-89.268;2023-10-31T09:14:23;2.22;;;1.50;;
78368;SDS011;71113;43.092;-89.268;2023-10-31T09:16:49;2.53;;;1.70;;
78368;SDS011;71113;43.092;-89.268;2023-10-31T09:19:15;2.28;;;1.50;;
78368;SDS011;71113;43.092;-89.268;2023-10-31T09:21:41;1.90;;;1.35;;
78368;SDS011;71113;43.092;-89.268;2023-10-31T09:24:07;2.33;;;1.60;;
78368;SDS011;71113;43.092;-89.268;2023-10-31T09:26:33;1.80;;;1.40;;
78368;SDS011;71113;43.092;-89.268;2023-10-31T09:28:59;2.17;;;1.50;;
78368;SDS011;71113;43.092;-89.268;2023-10-31T09:31:25;2.53;;;1.45;;
78368;SDS011;71113;43.092;-89.268;2023-10-31T09:33:51;2.78;;;1.38;;
78368;SDS011;71113;43.092;-89.268;2023-10-31T09:36:19;1.67;;;1.30;;
78368;SDS011;71113;43.092;-89.268;2023-10-31T09:38:45;2.00;;;1.50;;
78368;SDS011;71113;43.092;-89.268;2023-10-31T09:41:12;1.95;;;1.27;;
78368;SDS011;71113;43.092;-89.268;2023-10-31T09:43:39;1.45;;;1.20;;
78368;SDS011;71113;43.092;-89.268;2023-10-31T09:46:06;1.83;;;1.40;;
78368;SDS011;71113;43.092;-89.268;2023-10-31T09:48:32;1.80;;;1.30;;
78368;SDS011;71113;43.092;-89.268;2023-10-31T09:50:59;1.45;;;1.20;;
78368;SDS011;71113;43.092;-89.268;2023-10-31T09:53:25;1.67;;;1.38;;
78368;SDS011;71113;43.092;-89.268;2023-10-31T09:55:53;1.63;;;1.35;;
78368;SDS011;71113;43.092;-89.268;2023-10-31T09:58:19;1.65;;;1.40;;
78368;SDS011;71113;43.092;-89.268;2023-10-31T10:00:45;1.80;;;1.40;;
78368;SDS011;71113;43.092;-89.268;2023-10-31T10:03:11;1.90;;;1.25;;
78368;SDS011;71113;43.092;-89.268;2023-10-31T10:05:38;2.13;;;1.50;;
78368;SDS011;71113;43.092;-89.268;2023-10-31T10:08:06;1.92;;;1.40;;
78368;SDS011;71113;43.092;-89.268;2023-10-31T10:10:33;1.75;;;1.30;;
78368;SDS011;71113;43.092;-89.268;2023-10-31T10:12:59;2.75;;;1.50;;
78368;SDS011;71113;43.092;-89.268;2023-10-31T10:15:28;1.77;;;1.20;;
78368;SDS011;71113;43.092;-89.268;2023-10-31T10:17:54;1.75;;;1.35;;
78368;SDS011;71113;43.092;-89.268;2023-10-31T10:20:21;2.45;;;1.20;;
78368;SDS011;71113;43.092;-89.268;2023-10-31T10:22:46;2.00;;;1.10;;
78368;SDS011;71113;43.092;-89.268;2023-10-31T10:25:13;2.10;;;1.50;;
78368;SDS011;71113;43.092;-89.268;2023-10-31T10:27:45;1.92;;;1.33;;
78368;SDS011;71113;43.092;-89.268;2023-10-31T10:30:12;2.10;;;1.40;;
78368;SDS011;71113;43.092;-89.268;2023-10-31T10:32:39;1.88;;;1.10;;
78368;SDS011;71113;43.092;-89.268;2023-10-31T10:35:06;1.70;;;1.20;;
78368;SDS011;71113;43.092;-89.268;2023-10-31T10:37:33;1.95;;;1.42;;
78368;SDS011;71113;43.092;-89.268;2023-10-31T10:40:05;2.40;;;1.52;;
78368;SDS011;71113;43.092;-89.268;2023-10-31T10:42:33;2.53;;;1.52;;
78368;SDS011;71113;43.092;-89.268;2023-10-31T10:45:04;1.92;;;1.50;;
78368;SDS011;71113;43.092;-89.268;2023-10-31T10:47:34;1.70;;;1.27;;
78368;SDS011;71113;43.092;-89.268;2023-10-31T10:50:03;2.22;;;1.38;;
78368;SDS011;71113;43.092;-89.268;2023-10-31T10:52:48;1.80;;;1.00;;
78368;SDS011;71113;43.092;-89.268;2023-10-31T10:55:38;1.88;;;1.45;;
78368;SDS011;71113;43.092;-89.268;2023-10-31T10:58:11;1.73;;;1.40;;
78368;SDS011;71113;43.092;-89.268;2023-10-31T11:00:44;2.60;;;1.50;;
78368;SDS011;71113;43.092;-89.268;2023-10-31T11:03:11;2.00;;;1.48;;
78368;SDS011;71113;43.092;-89.268;2023-10-31T11:05:38;1.35;;;1.10;;
78368;SDS011;71113;43.092;-89.268;2023-10-31T11:08:05;2.35;;;1.25;;
78368;SDS011;71113;43.092;-89.268;2023-10-31T11:10:32;2.25;;;1.50;;
78368;SDS011;71113;43.092;-89.268;2023-10-31T11:12:58;1.73;;;1.40;;
78368;SDS011;71113;43.092;-89.268;2023-10-31T11:15:24;1.67;;;1.17;;
78368;SDS011;71113;43.092;-89.268;2023-10-31T11:17:51;1.83;;;1.30;;
78368;SDS011;71113;43.092;-89.268;2023-10-31T11:20:20;1.80;;;1.17;;
78368;SDS011;71113;43.092;-89.268;2023-10-31T11:22:47;1.80;;;1.30;;
78368;SDS011;71113;43.092;-89.268;2023-10-31T11:25:19;1.65;;;0.90;;
78368;SDS011;71113;43.092;-89.268;2023-10-31T11:27:51;1.65;;;1.25;;
78368;SDS011;71113;43.092;-89.268;2023-10-31T11:30:22;1.80;;;1.30;;
78368;SDS011;71113;43.092;-89.268;2023-10-31T11:32:53;2.15;;;1.23;;
78368;SDS011;71113;43.092;-89.268;2023-10-31T11:35:36;2.00;;;1.10;;
78368;SDS011;71113;43.092;-89.268;2023-10-31T11:38:05;1.50;;;1.10;;
78368;SDS011;71113;43.092;-89.268;2023-10-31T11:40:32;1.58;;;1.17;;
78368;SDS011;71113;43.092;-89.268;2023-10-31T11:43:01;1.52;;;1.27;;
78368;SDS011;71113;43.092;-89.268;2023-10-31T11:45:35;1.70;;;1.30;;
78368;SDS011;71113;43.092;-89.268;2023-10-31T11:48:12;2.00;;;1.35;;
78368;SDS011;71113;43.092;-89.268;2023-10-31T11:50:39;1.63;;;1.30;;
78368;SDS011;71113;43.092;-89.268;2023-10-31T11:53:06;1.70;;;1.30;;
78368;SDS011;71113;43.092;-89.268;2023-10-31T11:55:33;1.60;;;1.50;;
78368;SDS011;71113;43.092;-89.268;2023-10-31T11:58:13;1.73;;;1.38;;
78368;SDS011;71113;43.092;-89.268;2023-10-31T12:00:41;1.60;;;1.20;;
78368;SDS011;71113;43.092;-89.268;2023-10-31T12:03:07;1.88;;;1.30;;
78368;SDS011;71113;43.092;-89.268;2023-10-31T12:05:32;1.65;;;1.20;;
78368;SDS011;71113;43.092;-89.268;2023-10-31T12:07:58;1.55;;;1.10;;
78368;SDS011;71113;43.092;-89.268;2023-10-31T12:10:25;1.77;;;1.10;;
78368;SDS011;71113;43.092;-89.268;2023-10-31T12:12:56;2.05;;;1.25;;
78368;SDS011;71113;43.092;-89.268;2023-10-31T12:15:26;1.80;;;1.30;;
78368;SDS011;71113;43.092;-89.268;2023-10-31T12:17:52;1.35;;;1.10;;
78368;SDS011;71113;43.092;-89.268;2023-10-31T12:20:22;1.67;;;1.20;;
78368;SDS011;71113;43.092;-89.268;2023-10-31T12:23:00;1.48;;;1.10;;
78368;SDS011;71113;43.092;-89.268;2023-10-31T12:25:27;1.48;;;1.00;;
78368;SDS011;71113;43.092;-89.268;2023-10-31T12:27:53;2.22;;;1.30;;
78368;SDS011;71113;43.092;-89.268;2023-10-31T12:30:20;2.00;;;1.30;;
78368;SDS011;71113;43.092;-89.268;2023-10-31T12:32:53;1.67;;;1.20;;
78368;SDS011;71113;43.092;-89.268;2023-10-31T12:35:22;1.95;;;1.58;;
78368;SDS011;71113;43.092;-89.268;2023-10-31T12:37:50;1.73;;;1.23;;
78368;SDS011;71113;43.092;-89.268;2023-10-31T12:40:17;1.90;;;1.20;;
78368;SDS011;71113;43.092;-89.268;2023-10-31T12:42:44;1.58;;;1.13;;
78368;SDS011;71113;43.092;-89.268;2023-10-31T12:45:11;1.50;;;1.17;;
78368;SDS011;71113;43.092;-89.268;2023-10-31T12:47:37;1.65;;;1.20;;
78368;SDS011;71113;43.092;-89.268;2023-10-31T12:50:12;1.92;;;1.33;;
78368;SDS011;71113;43.092;-89.268;2023-10-31T12:55:15;1.20;;;1.10;;
78368;SDS011;71113;43.092;-89.268;2023-10-31T12:57:42;1.85;;;1.50;;
78368;SDS011;71113;43.092;-89.268;2023-10-31T13:00:09;1.50;;;1.20;;
78368;SDS011;71113;43.092;-89.268;2023-10-31T13:02:41;1.58;;;1.20;;
78368;SDS011;71113;43.092;-89.268;2023-10-31T13:05:16;1.67;;;1.35;;
78368;SDS011;71113;43.092;-89.268;2023-10-31T13:07:49;1.35;;;1.15;;
78368;SDS011;71113;43.092;-89.268;2023-10-31T13:10:16;2.08;;;1.20;;
78368;SDS011;71113;43.092;-89.268;2023-10-31T13:12:43;1.85;;;1.40;;
78368;SDS011;71113;43.092;-89.268;2023-10-31T13:15:12;2.45;;;1.38;;
78368;SDS011;71113;43.092;-89.268;2023-10-31T13:17:39;2.20;;;1.42;;
78368;SDS011;71113;43.092;-89.268;2023-10-31T13:20:08;2.20;;;1.60;;
78368;SDS011;71113;43.092;-89.268;2023-10-31T13:22:38;3.00;;;1.83;;
78368;SDS011;71113;43.092;-89.268;2023-10-31T13:25:06;3.38;;;1.80;;
78368;SDS011;71113;43.092;-89.268;2023-10-31T13:27:35;3.40;;;2.00;;
78368;SDS011;71113;43.092;-89.268;2023-10-31T13:30:06;3.95;;;1.95;;
78368;SDS011;71113;43.092;-89.268;2023-10-31T13:32:33;2.80;;;1.83;;
78368;SDS011;71113;43.092;-89.268;2023-10-31T13:35:00;3.30;;;2.00;;
78368;SDS011;71113;43.092;-89.268;2023-10-31T13:37:26;3.85;;;2.53;;
78368;SDS011;71113;43.092;-89.268;2023-10-31T13:39:52;3.40;;;2.03;;
78368;SDS011;71113;43.092;-89.268;2023-10-31T13:42:18;3.50;;;2.25;;
78368;SDS011;71113;43.092;-89.268;2023-10-31T13:44:44;4.43;;;2.50;;
78368;SDS011;71113;43.092;-89.268;2023-10-31T13:47:10;4.07;;;2.60;;
78368;SDS011;71113;43.092;-89.268;2023-10-31T13:49:36;4.28;;;2.40;;
78368;SDS011;71113;43.092;-89.268;2023-10-31T13:52:05;3.40;;;2.03;;
78368;SDS011;71113;43.092;-89.268;2023-10-31T13:54:34;4.30;;;2.28;;
78368;SDS011;71113;43.092;-89.268;2023-10-31T13:57:00;4.10;;;2.38;;
78368;SDS011;71113;43.092;-89.268;2023-10-31T13:59:26;4.13;;;2.42;;
78368;SDS011;71113;43.092;-89.268;2023-10-31T14:01:52;4.70;;;2.33;;
78368;SDS011;71113;43.092;-89.268;2023-10-31T14:04:19;4.97;;;2.60;;
78368;SDS011;71113;43.092;-89.268;2023-10-31T14:06:45;4.50;;;2.45;;
78368;SDS011;71113;43.092;-89.268;2023-10-31T14:09:12;4.97;;;2.70;;
78368;SDS011;71113;43.092;-89.268;2023-10-31T14:11:38;6.18;;;3.03;;
78368;SDS011;71113;43.092;-89.268;2023-10-31T14:14:05;4.38;;;2.95;;
78368;SDS011;71113;43.092;-89.268;2023-10-31T14:16:35;5.00;;;3.20;;
78368;SDS011;71113;43.092;-89.268;2023-10-31T14:19:10;7.15;;;3.70;;
78368;SDS011;71113;43.092;-89.268;2023-10-31T14:21:38;8.07;;;3.90;;
78368;SDS011;71113;43.092;-89.268;2023-10-31T14:24:05;7.78;;;3.75;;